sensor_id;sensor_type;location;lat;lon;timestamp;P1;durP1;ratioP1;P2;durP2;ratioP2
7545;SDS011;3814;51.454;12.616;2023-04-06T00:00:00;7.63;;;3.90;;
7545;SDS011;3814;51.454;12.616;2023-04-06T00:02:25;9.75;;;4.43;;
7545;SDS011;3814;51.454;12.616;2023-04-06T00:04:50;9.18;;;4.43;;
7545;SDS011;3814;51.454;12.616;2023-04-06T00:07:16;10.27;;;4.53;;
7545;SDS011;3814;51.454;12.616;2023-04-06T00:09:41;8.20;;;4.30;;
7545;SDS011;3814;51.454;12.616;2023-04-06T00:12:06;10.60;;;4.43;;
7545;SDS011;3814;51.454;12.616;2023-04-06T00:14:31;7.75;;;3.92;;
7545;SDS011;3814;51.454;12.616;2023-04-06T00:16:57;10.98;;;4.30;;
7545;SDS011;3814;51.454;12.616;2023-04-06T00:19:22;8.75;;;4.22;;
7545;SDS011;3814;51.454;12.616;2023-04-06T00:21:47;7.47;;;3.83;;
7545;SDS011;3814;51.454;12.616;2023-04-06T00:24:13;7.45;;;3.90;;
7545;SDS011;3814;51.454;12.616;2023-04-06T00:26:38;9.30;;;4.82;;
7545;SDS011;3814;51.454;12.616;2023-04-06T00:29:03;9.30;;;4.47;;
7545;SDS011;3814;51.454;12.616;2023-04-06T00:31:29;7.95;;;4.25;;
7545;SDS011;3814;51.454;12.616;2023-04-06T00:33:54;9.88;;;4.82;;
7545;SDS011;3814;51.454;12.616;2023-04-06T00:36:19;9.57;;;4.78;;
7545;SDS011;3814;51.454;12.616;2023-04-06T00:38:44;8.50;;;4.97;;
7545;SDS011;3814;51.454;12.616;2023-04-06T00:41:10;8.73;;;4.47;;
7545;SDS011;3814;51.454;12.616;2023-04-06T00:43:35;9.73;;;3.88;;
7545;SDS011;3814;51.454;12.616;2023-04-06T00:46:00;10.43;;;4.75;;
7545;SDS011;3814;51.454;12.616;2023-04-06T00:48:26;8.50;;;4.25;;
7545;SDS011;3814;51.454;12.616;2023-04-06T00:50:51;10.63;;;4.70;;
7545;SDS011;3814;51.454;12.616;2023-04-06T00:53:16;10.43;;;4.68;;
7545;SDS011;3814;51.454;12.616;2023-04-06T00:55:42;10.25;;;4.32;;
7545;SDS011;3814;51.454;12.616;2023-04-06T00:58:07;10.25;;;4.55;;
7545;SDS011;3814;51.454;12.616;2023-04-06T01:00:33;8.52;;;4.43;;
7545;SDS011;3814;51.454;12.616;2023-04-06T01:02:58;7.32;;;3.55;;
7545;SDS011;3814;51.454;12.616;2023-04-06T01:05:23;9.32;;;4.43;;
7545;SDS011;3814;51.454;12.616;2023-04-06T01:07:49;8.55;;;3.90;;
7545;SDS011;3814;51.454;12.616;2023-04-06T01:10:27;10.20;;;4.63;;
7545;SDS011;3814;51.454;12.616;2023-04-06T01:12:53;10.00;;;4.50;;
7545;SDS011;3814;51.454;12.616;2023-04-06T01:15:19;10.85;;;4.93;;
7545;SDS011;3814;51.454;12.616;2023-04-06T01:17:45;11.52;;;4.63;;
7545;SDS011;3814;51.454;12.616;2023-04-06T01:20:10;12.65;;;4.80;;
7545;SDS011;3814;51.454;12.616;2023-04-06T01:22:36;13.50;;;4.75;;
7545;SDS011;3814;51.454;12.616;2023-04-06T01:25:01;10.48;;;4.78;;
7545;SDS011;3814;51.454;12.616;2023-04-06T01:27:26;9.98;;;4.47;;
7545;SDS011;3814;51.454;12.616;2023-04-06T01:29:53;10.40;;;5.07;;
7545;SDS011;3814;51.454;12.616;2023-04-06T01:32:18;8.85;;;4.57;;
7545;SDS011;3814;51.454;12.616;2023-04-06T01:34:43;9.35;;;4.22;;
7545;SDS011;3814;51.454;12.616;2023-04-06T01:37:08;8.93;;;4.45;;
7545;SDS011;3814;51.454;12.616;2023-04-06T01:39:34;10.38;;;4.50;;
7545;SDS011;3814;51.454;12.616;2023-04-06T01:41:59;9.32;;;4.53;;
7545;SDS011;3814;51.454;12.616;2023-04-06T01:44:24;10.00;;;4.97;;
7545;SDS011;3814;51.454;12.616;2023-04-06T01:46:50;11.80;;;5.15;;
7545;SDS011;3814;51.454;12.616;2023-04-06T01:49:15;9.63;;;4.95;;
7545;SDS011;3814;51.454;12.616;2023-04-06T01:51:40;13.05;;;5.40;;
7545;SDS011;3814;51.454;12.616;2023-04-06T01:54:06;13.13;;;4.80;;
7545;SDS011;3814;51.454;12.616;2023-04-06T01:56:31;8.23;;;4.32;;
7545;SDS011;3814;51.454;12.616;2023-04-06T01:58:56;10.20;;;5.22;;
7545;SDS011;3814;51.454;12.616;2023-04-06T02:01:22;11.27;;;5.00;;
7545;SDS011;3814;51.454;12.616;2023-04-06T02:03:47;12.65;;;4.78;;
7545;SDS011;3814;51.454;12.616;2023-04-06T02:06:12;12.25;;;4.85;;
7545;SDS011;3814;51.454;12.616;2023-04-06T02:08:37;10.00;;;4.88;;
7545;SDS011;3814;51.454;12.616;2023-04-06T02:11:03;9.27;;;4.30;;
7545;SDS011;3814;51.454;12.616;2023-04-06T02:13:28;8.38;;;4.43;;
7545;SDS011;3814;51.454;12.616;2023-04-06T02:15:53;10.27;;;4.50;;
7545;SDS011;3814;51.454;12.616;2023-04-06T02:18:22;10.68;;;5.10;;
7545;SDS011;3814;51.454;12.616;2023-04-06T02:20:47;11.48;;;4.95;;
7545;SDS011;3814;51.454;12.616;2023-04-06T02:23:13;10.10;;;5.10;;
7545;SDS011;3814;51.454;12.616;2023-04-06T02:25:38;10.68;;;5.38;;
7545;SDS011;3814;51.454;12.616;2023-04-06T02:28:03;10.77;;;4.95;;
7545;SDS011;3814;51.454;12.616;2023-04-06T02:30:29;10.00;;;5.13;;
7545;SDS011;3814;51.454;12.616;2023-04-06T02:32:54;10.45;;;4.80;;
7545;SDS011;3814;51.454;12.616;2023-04-06T02:35:20;11.68;;;4.85;;
7545;SDS011;3814;51.454;12.616;2023-04-06T02:37:45;12.07;;;5.38;;
7545;SDS011;3814;51.454;12.616;2023-04-06T02:40:11;11.35;;;5.28;;
7545;SDS011;3814;51.454;12.616;2023-04-06T02:42:36;10.20;;;5.05;;
7545;SDS011;3814;51.454;12.616;2023-04-06T02:45:01;8.82;;;4.43;;
7545;SDS011;3814;51.454;12.616;2023-04-06T02:47:26;11.38;;;5.32;;
7545;SDS011;3814;51.454;12.616;2023-04-06T02:49:52;9.55;;;5.05;;
7545;SDS011;3814;51.454;12.616;2023-04-06T02:52:17;10.85;;;5.00;;
7545;SDS011;3814;51.454;12.616;2023-04-06T02:54:43;11.02;;;5.35;;
7545;SDS011;3814;51.454;12.616;2023-04-06T02:57:08;10.18;;;4.80;;
7545;SDS011;3814;51.454;12.616;2023-04-06T02:59:33;11.45;;;5.07;;
7545;SDS011;3814;51.454;12.616;2023-04-06T03:01:59;13.07;;;5.22;;
7545;SDS011;3814;51.454;12.616;2023-04-06T03:04:24;13.50;;;5.90;;
7545;SDS011;3814;51.454;12.616;2023-04-06T03:06:50;10.05;;;4.90;;
7545;SDS011;3814;51.454;12.616;2023-04-06T03:09:16;11.02;;;5.28;;
7545;SDS011;3814;51.454;12.616;2023-04-06T03:11:41;11.45;;;5.70;;
7545;SDS011;3814;51.454;12.616;2023-04-06T03:14:06;10.57;;;5.13;;
7545;SDS011;3814;51.454;12.616;2023-04-06T03:16:32;10.93;;;5.10;;
7545;SDS011;3814;51.454;12.616;2023-04-06T03:18:57;8.68;;;4.43;;
7545;SDS011;3814;51.454;12.616;2023-04-06T03:21:22;10.77;;;5.70;;
7545;SDS011;3814;51.454;12.616;2023-04-06T03:23:47;12.68;;;5.28;;
7545;SDS011;3814;51.454;12.616;2023-04-06T03:26:15;10.52;;;4.90;;
7545;SDS011;3814;51.454;12.616;2023-04-06T03:28:41;9.68;;;5.10;;
7545;SDS011;3814;51.454;12.616;2023-04-06T03:31:06;12.13;;;5.63;;
7545;SDS011;3814;51.454;12.616;2023-04-06T03:33:31;11.90;;;5.40;;
7545;SDS011;3814;51.454;12.616;2023-04-06T03:35:57;11.13;;;5.57;;
7545;SDS011;3814;51.454;12.616;2023-04-06T03:38:22;12.43;;;5.43;;
7545;SDS011;3814;51.454;12.616;2023-04-06T03:40:47;11.73;;;5.30;;
7545;SDS011;3814;51.454;12.616;2023-04-06T03:43:12;14.02;;;5.25;;
7545;SDS011;3814;51.454;12.616;2023-04-06T03:45:38;12.30;;;5.68;;
7545;SDS011;3814;51.454;12.616;2023-04-06T03:48:04;11.15;;;5.10;;
7545;SDS011;3814;51.454;12.616;2023-04-06T03:50:29;12.20;;;5.00;;
7545;SDS011;3814;51.454;12.616;2023-04-06T03:52:55;13.27;;;5.30;;
7545;SDS011;3814;51.454;12.616;2023-04-06T03:55:20;11.70;;;5.63;;
7545;SDS011;3814;51.454;12.616;2023-04-06T03:57:45;12.55;;;5.35;;
7545;SDS011;3814;51.454;12.616;2023-04-06T04:00:11;12.00;;;5.53;;
7545;SDS011;3814;51.454;12.616;2023-04-06T04:02:37;11.10;;;5.28;;
7545;SDS011;3814;51.454;12.616;2023-04-06T04:05:02;12.10;;;5.22;;
7545;SDS011;3814;51.454;12.616;2023-04-06T04:07:28;10.88;;;5.50;;
7545;SDS011;3814;51.454;12.616;2023-04-06T04:09:53;9.68;;;4.85;;
7545;SDS011;3814;51.454;12.616;2023-04-06T04:12:18;10.15;;;4.82;;
7545;SDS011;3814;51.454;12.616;2023-04-06T04:14:43;12.23;;;5.20;;
7545;SDS011;3814;51.454;12.616;2023-04-06T04:17:09;9.73;;;5.32;;
7545;SDS011;3814;51.454;12.616;2023-04-06T04:19:34;13.82;;;5.82;;
7545;SDS011;3814;51.454;12.616;2023-04-06T04:21:59;11.02;;;5.20;;
7545;SDS011;3814;51.454;12.616;2023-04-06T04:24:25;12.13;;;5.00;;
7545;SDS011;3814;51.454;12.616;2023-04-06T04:26:51;12.23;;;5.85;;
7545;SDS011;3814;51.454;12.616;2023-04-06T04:29:16;11.88;;;5.85;;
7545;SDS011;3814;51.454;12.616;2023-04-06T04:31:41;11.25;;;5.22;;
7545;SDS011;3814;51.454;12.616;2023-04-06T04:34:06;10.10;;;4.90;;
7545;SDS011;3814;51.454;12.616;2023-04-06T04:36:32;9.43;;;4.70;;
7545;SDS011;3814;51.454;12.616;2023-04-06T04:38:57;10.25;;;4.93;;
7545;SDS011;3814;51.454;12.616;2023-04-06T04:41:23;11.13;;;4.93;;
7545;SDS011;3814;51.454;12.616;2023-04-06T04:43:48;11.90;;;5.50;;
7545;SDS011;3814;51.454;12.616;2023-04-06T04:46:13;14.38;;;4.88;;
7545;SDS011;3814;51.454;12.616;2023-04-06T04:48:38;13.82;;;6.32;;
7545;SDS011;3814;51.454;12.616;2023-04-06T04:51:04;12.75;;;5.40;;
7545;SDS011;3814;51.454;12.616;2023-04-06T04:53:30;13.43;;;6.40;;
7545;SDS011;3814;51.454;12.616;2023-04-06T04:55:55;12.25;;;6.90;;
7545;SDS011;3814;51.454;12.616;2023-04-06T04:58:20;13.57;;;6.45;;
7545;SDS011;3814;51.454;12.616;2023-04-06T05:00:46;9.40;;;5.13;;
7545;SDS011;3814;51.454;12.616;2023-04-06T05:03:24;12.30;;;5.32;;
7545;SDS011;3814;51.454;12.616;2023-04-06T05:05:51;10.10;;;5.30;;
7545;SDS011;3814;51.454;12.616;2023-04-06T05:08:16;11.45;;;5.47;;
7545;SDS011;3814;51.454;12.616;2023-04-06T05:10:41;10.50;;;4.97;;
7545;SDS011;3814;51.454;12.616;2023-04-06T05:13:07;11.27;;;5.53;;
7545;SDS011;3814;51.454;12.616;2023-04-06T05:15:32;11.38;;;5.90;;
7545;SDS011;3814;51.454;12.616;2023-04-06T05:18:00;11.57;;;5.53;;
7545;SDS011;3814;51.454;12.616;2023-04-06T05:20:25;15.60;;;5.80;;
7545;SDS011;3814;51.454;12.616;2023-04-06T05:22:51;11.23;;;5.43;;
7545;SDS011;3814;51.454;12.616;2023-04-06T05:25:16;11.43;;;5.50;;
7545;SDS011;3814;51.454;12.616;2023-04-06T05:27:41;11.20;;;5.40;;
7545;SDS011;3814;51.454;12.616;2023-04-06T05:30:07;10.50;;;5.53;;
7545;SDS011;3814;51.454;12.616;2023-04-06T05:32:32;13.40;;;5.45;;
7545;SDS011;3814;51.454;12.616;2023-04-06T05:34:58;11.95;;;5.07;;
7545;SDS011;3814;51.454;12.616;2023-04-06T05:37:23;11.27;;;5.70;;
7545;SDS011;3814;51.454;12.616;2023-04-06T05:39:48;11.40;;;5.70;;
7545;SDS011;3814;51.454;12.616;2023-04-06T05:42:14;14.30;;;5.63;;
7545;SDS011;3814;51.454;12.616;2023-04-06T05:44:40;12.75;;;5.25;;
7545;SDS011;3814;51.454;12.616;2023-04-06T05:47:06;10.07;;;5.63;;
7545;SDS011;3814;51.454;12.616;2023-04-06T05:49:31;10.43;;;4.95;;
7545;SDS011;3814;51.454;12.616;2023-04-06T05:51:56;10.30;;;4.90;;
7545;SDS011;3814;51.454;12.616;2023-04-06T05:54:21;8.95;;;4.88;;
7545;SDS011;3814;51.454;12.616;2023-04-06T05:56:47;11.93;;;5.00;;
7545;SDS011;3814;51.454;12.616;2023-04-06T05:59:12;10.27;;;4.68;;
7545;SDS011;3814;51.454;12.616;2023-04-06T06:01:37;8.80;;;4.93;;
7545;SDS011;3814;51.454;12.616;2023-04-06T06:04:03;11.00;;;5.03;;
7545;SDS011;3814;51.454;12.616;2023-04-06T06:06:28;9.93;;;4.80;;
7545;SDS011;3814;51.454;12.616;2023-04-06T06:08:55;12.07;;;5.35;;
7545;SDS011;3814;51.454;12.616;2023-04-06T06:11:23;9.15;;;4.90;;
7545;SDS011;3814;51.454;12.616;2023-04-06T06:13:48;10.40;;;5.03;;
7545;SDS011;3814;51.454;12.616;2023-04-06T06:16:13;10.13;;;5.10;;
7545;SDS011;3814;51.454;12.616;2023-04-06T06:18:39;10.63;;;5.60;;
7545;SDS011;3814;51.454;12.616;2023-04-06T06:21:04;13.45;;;5.90;;
7545;SDS011;3814;51.454;12.616;2023-04-06T06:23:30;11.30;;;5.53;;
7545;SDS011;3814;51.454;12.616;2023-04-06T06:25:55;11.48;;;5.30;;
7545;SDS011;3814;51.454;12.616;2023-04-06T06:28:22;11.23;;;5.70;;
7545;SDS011;3814;51.454;12.616;2023-04-06T06:30:48;11.25;;;5.90;;
7545;SDS011;3814;51.454;12.616;2023-04-06T06:33:13;14.20;;;5.90;;
7545;SDS011;3814;51.454;12.616;2023-04-06T06:35:38;12.93;;;5.68;;
7545;SDS011;3814;51.454;12.616;2023-04-06T06:38:04;12.60;;;6.05;;
7545;SDS011;3814;51.454;12.616;2023-04-06T06:40:29;14.88;;;6.18;;
7545;SDS011;3814;51.454;12.616;2023-04-06T06:42:54;13.25;;;6.25;;
7545;SDS011;3814;51.454;12.616;2023-04-06T06:45:20;11.68;;;5.97;;
7545;SDS011;3814;51.454;12.616;2023-04-06T06:47:45;11.43;;;6.13;;
7545;SDS011;3814;51.454;12.616;2023-04-06T06:50:11;13.20;;;6.05;;
7545;SDS011;3814;51.454;12.616;2023-04-06T06:52:36;13.23;;;6.63;;
7545;SDS011;3814;51.454;12.616;2023-04-06T06:55:01;10.93;;;6.03;;
7545;SDS011;3814;51.454;12.616;2023-04-06T06:57:27;11.15;;;6.05;;
7545;SDS011;3814;51.454;12.616;2023-04-06T06:59:53;12.85;;;6.22;;
7545;SDS011;3814;51.454;12.616;2023-04-06T07:02:18;12.75;;;6.70;;
7545;SDS011;3814;51.454;12.616;2023-04-06T07:04:43;13.13;;;6.50;;
7545;SDS011;3814;51.454;12.616;2023-04-06T07:07:08;9.60;;;5.57;;
7545;SDS011;3814;51.454;12.616;2023-04-06T07:09:34;13.27;;;6.50;;
7545;SDS011;3814;51.454;12.616;2023-04-06T07:12:00;13.98;;;5.97;;
7545;SDS011;3814;51.454;12.616;2023-04-06T07:14:26;13.02;;;6.80;;
7545;SDS011;3814;51.454;12.616;2023-04-06T07:16:52;13.88;;;6.00;;
7545;SDS011;3814;51.454;12.616;2023-04-06T07:19:17;14.30;;;6.18;;
7545;SDS011;3814;51.454;12.616;2023-04-06T07:21:42;11.95;;;6.28;;
7545;SDS011;3814;51.454;12.616;2023-04-06T07:24:08;11.23;;;6.03;;
7545;SDS011;3814;51.454;12.616;2023-04-06T07:26:33;10.98;;;5.85;;
7545;SDS011;3814;51.454;12.616;2023-04-06T07:28:58;12.50;;;6.07;;
7545;SDS011;3814;51.454;12.616;2023-04-06T07:31:23;11.23;;;6.10;;
7545;SDS011;3814;51.454;12.616;2023-04-06T07:33:49;11.10;;;5.97;;
7545;SDS011;3814;51.454;12.616;2023-04-06T07:36:15;12.45;;;5.85;;
7545;SDS011;3814;51.454;12.616;2023-04-06T07:38:40;9.98;;;5.57;;
7545;SDS011;3814;51.454;12.616;2023-04-06T07:41:05;9.80;;;5.47;;
7545;SDS011;3814;51.454;12.616;2023-04-06T07:43:31;10.73;;;6.43;;
7545;SDS011;3814;51.454;12.616;2023-04-06T07:45:56;13.85;;;5.75;;
7545;SDS011;3814;51.454;12.616;2023-04-06T07:48:22;10.43;;;6.10;;
7545;SDS011;3814;51.454;12.616;2023-04-06T07:50:48;11.88;;;5.80;;
7545;SDS011;3814;51.454;12.616;2023-04-06T07:53:13;8.63;;;5.63;;
7545;SDS011;3814;51.454;12.616;2023-04-06T07:55:38;12.35;;;5.95;;
7545;SDS011;3814;51.454;12.616;2023-04-06T07:58:04;10.80;;;5.90;;
7545;SDS011;3814;51.454;12.616;2023-04-06T08:00:29;9.57;;;5.55;;
7545;SDS011;3814;51.454;12.616;2023-04-06T08:02:55;10.00;;;5.60;;
7545;SDS011;3814;51.454;12.616;2023-04-06T08:05:20;10.13;;;5.03;;
7545;SDS011;3814;51.454;12.616;2023-04-06T08:07:45;9.07;;;4.53;;
7545;SDS011;3814;51.454;12.616;2023-04-06T08:10:11;9.15;;;4.22;;
7545;SDS011;3814;51.454;12.616;2023-04-06T08:12:36;7.70;;;4.40;;
7545;SDS011;3814;51.454;12.616;2023-04-06T08:15:01;9.10;;;4.45;;
7545;SDS011;3814;51.454;12.616;2023-04-06T08:17:28;10.15;;;4.90;;
7545;SDS011;3814;51.454;12.616;2023-04-06T08:19:55;8.13;;;4.47;;
7545;SDS011;3814;51.454;12.616;2023-04-06T08:22:20;8.73;;;4.55;;
7545;SDS011;3814;51.454;12.616;2023-04-06T08:24:45;6.95;;;4.38;;
7545;SDS011;3814;51.454;12.616;2023-04-06T08:27:11;9.20;;;5.05;;
7545;SDS011;3814;51.454;12.616;2023-04-06T08:29:38;8.52;;;4.57;;
7545;SDS011;3814;51.454;12.616;2023-04-06T08:32:03;7.60;;;4.78;;
7545;SDS011;3814;51.454;12.616;2023-04-06T08:34:30;7.93;;;4.60;;
7545;SDS011;3814;51.454;12.616;2023-04-06T08:36:56;11.02;;;4.82;;
7545;SDS011;3814;51.454;12.616;2023-04-06T08:42:21;9.00;;;4.82;;
7545;SDS011;3814;51.454;12.616;2023-04-06T08:44:47;8.27;;;4.63;;
7545;SDS011;3814;51.454;12.616;2023-04-06T08:47:14;10.57;;;5.03;;
7545;SDS011;3814;51.454;12.616;2023-04-06T08:49:39;9.30;;;4.90;;
7545;SDS011;3814;51.454;12.616;2023-04-06T08:52:06;10.40;;;5.25;;
7545;SDS011;3814;51.454;12.616;2023-04-06T08:54:32;10.65;;;4.93;;
7545;SDS011;3814;51.454;12.616;2023-04-06T08:56:58;12.23;;;5.25;;
7545;SDS011;3814;51.454;12.616;2023-04-06T08:59:24;9.27;;;4.95;;
7545;SDS011;3814;51.454;12.616;2023-04-06T09:01:50;9.57;;;4.97;;
7545;SDS011;3814;51.454;12.616;2023-04-06T09:04:16;8.27;;;4.68;;
7545;SDS011;3814;51.454;12.616;2023-04-06T09:06:42;10.05;;;5.05;;
7545;SDS011;3814;51.454;12.616;2023-04-06T09:09:07;9.65;;;5.18;;
7545;SDS011;3814;51.454;12.616;2023-04-06T09:11:46;10.85;;;5.13;;
7545;SDS011;3814;51.454;12.616;2023-04-06T09:14:14;9.18;;;5.35;;
7545;SDS011;3814;51.454;12.616;2023-04-06T09:16:44;8.52;;;5.50;;
7545;SDS011;3814;51.454;12.616;2023-04-06T09:19:10;10.00;;;4.55;;
7545;SDS011;3814;51.454;12.616;2023-04-06T09:21:37;9.13;;;4.35;;
7545;SDS011;3814;51.454;12.616;2023-04-06T09:24:06;9.98;;;5.07;;
7545;SDS011;3814;51.454;12.616;2023-04-06T09:26:31;11.15;;;5.53;;
7545;SDS011;3814;51.454;12.616;2023-04-06T09:28:58;9.65;;;5.22;;
7545;SDS011;3814;51.454;12.616;2023-04-06T09:31:27;9.55;;;4.57;;
7545;SDS011;3814;51.454;12.616;2023-04-06T09:33:53;10.23;;;5.15;;
7545;SDS011;3814;51.454;12.616;2023-04-06T09:36:19;8.63;;;4.63;;
7545;SDS011;3814;51.454;12.616;2023-04-06T09:38:52;8.93;;;4.93;;
7545;SDS011;3814;51.454;12.616;2023-04-06T09:54:07;9.55;;;4.57;;
7545;SDS011;3814;51.454;12.616;2023-04-06T09:56:43;9.07;;;4.68;;
7545;SDS011;3814;51.454;12.616;2023-04-06T09:59:15;9.85;;;5.32;;
7545;SDS011;3814;51.454;12.616;2023-04-06T10:01:48;8.63;;;5.10;;
7545;SDS011;3814;51.454;12.616;2023-04-06T10:04:21;9.85;;;5.55;;
7545;SDS011;3814;51.454;12.616;2023-04-06T10:07:12;10.55;;;5.15;;
7545;SDS011;3814;51.454;12.616;2023-04-06T10:09:38;10.00;;;4.22;;
7545;SDS011;3814;51.454;12.616;2023-04-06T10:12:04;8.07;;;4.50;;
7545;SDS011;3814;51.454;12.616;2023-04-06T10:14:34;7.78;;;4.72;;
7545;SDS011;3814;51.454;12.616;2023-04-06T10:17:03;7.25;;;4.40;;
7545;SDS011;3814;51.454;12.616;2023-04-06T10:19:32;8.27;;;4.75;;
7545;SDS011;3814;51.454;12.616;2023-04-06T10:22:05;6.88;;;4.20;;
7545;SDS011;3814;51.454;12.616;2023-04-06T10:24:33;8.10;;;4.35;;
7545;SDS011;3814;51.454;12.616;2023-04-06T10:27:00;7.55;;;4.10;;
7545;SDS011;3814;51.454;12.616;2023-04-06T10:29:26;8.88;;;4.22;;
7545;SDS011;3814;51.454;12.616;2023-04-06T10:31:52;8.07;;;4.28;;
7545;SDS011;3814;51.454;12.616;2023-04-06T10:34:18;12.35;;;4.45;;
7545;SDS011;3814;51.454;12.616;2023-04-06T10:36:43;7.72;;;4.60;;
7545;SDS011;3814;51.454;12.616;2023-04-06T10:39:08;9.10;;;4.53;;
7545;SDS011;3814;51.454;12.616;2023-04-06T10:41:34;6.53;;;4.20;;
7545;SDS011;3814;51.454;12.616;2023-04-06T10:44:07;6.70;;;4.20;;
7545;SDS011;3814;51.454;12.616;2023-04-06T10:46:33;6.63;;;3.97;;
7545;SDS011;3814;51.454;12.616;2023-04-06T10:49:09;10.70;;;5.10;;
7545;SDS011;3814;51.454;12.616;2023-04-06T10:54:24;7.80;;;4.60;;
7545;SDS011;3814;51.454;12.616;2023-04-06T10:56:51;10.70;;;5.18;;
7545;SDS011;3814;51.454;12.616;2023-04-06T10:59:19;7.70;;;4.15;;
7545;SDS011;3814;51.454;12.616;2023-04-06T11:01:54;5.55;;;3.63;;
7545;SDS011;3814;51.454;12.616;2023-04-06T11:04:33;5.88;;;3.85;;
7545;SDS011;3814;51.454;12.616;2023-04-06T11:10:04;6.65;;;4.38;;
7545;SDS011;3814;51.454;12.616;2023-04-06T11:12:33;6.30;;;3.97;;
7545;SDS011;3814;51.454;12.616;2023-04-06T11:15:00;7.47;;;4.70;;
7545;SDS011;3814;51.454;12.616;2023-04-06T11:17:34;7.30;;;4.47;;
7545;SDS011;3814;51.454;12.616;2023-04-06T11:20:00;8.52;;;4.80;;
7545;SDS011;3814;51.454;12.616;2023-04-06T11:22:28;8.05;;;4.28;;
7545;SDS011;3814;51.454;12.616;2023-04-06T11:27:36;8.77;;;4.60;;
7545;SDS011;3814;51.454;12.616;2023-04-06T11:30:03;6.20;;;4.10;;
7545;SDS011;3814;51.454;12.616;2023-04-06T11:32:28;7.13;;;4.18;;
7545;SDS011;3814;51.454;12.616;2023-04-06T11:34:54;7.53;;;4.25;;
7545;SDS011;3814;51.454;12.616;2023-04-06T11:37:19;7.38;;;4.70;;
7545;SDS011;3814;51.454;12.616;2023-04-06T11:39:49;7.35;;;4.45;;
7545;SDS011;3814;51.454;12.616;2023-04-06T11:42:22;8.05;;;4.60;;
7545;SDS011;3814;51.454;12.616;2023-04-06T11:44:49;7.95;;;4.65;;
7545;SDS011;3814;51.454;12.616;2023-04-06T11:47:16;7.45;;;4.32;;
7545;SDS011;3814;51.454;12.616;2023-04-06T11:49:43;7.88;;;4.88;;
7545;SDS011;3814;51.454;12.616;2023-04-06T11:52:16;9.70;;;5.00;;
7545;SDS011;3814;51.454;12.616;2023-04-06T11:54:43;9.00;;;5.53;;
7545;SDS011;3814;51.454;12.616;2023-04-06T11:57:08;6.85;;;4.78;;
7545;SDS011;3814;51.454;12.616;2023-04-06T11:59:34;10.00;;;5.72;;
7545;SDS011;3814;51.454;12.616;2023-04-06T12:02:01;7.65;;;4.68;;
7545;SDS011;3814;51.454;12.616;2023-04-06T12:04:27;8.77;;;4.68;;
7545;SDS011;3814;51.454;12.616;2023-04-06T12:06:52;8.50;;;5.38;;
7545;SDS011;3814;51.454;12.616;2023-04-06T12:09:17;9.07;;;4.90;;
7545;SDS011;3814;51.454;12.616;2023-04-06T12:11:43;9.93;;;5.07;;
7545;SDS011;3814;51.454;12.616;2023-04-06T12:14:08;7.97;;;4.85;;
7545;SDS011;3814;51.454;12.616;2023-04-06T12:16:34;8.00;;;5.03;;
7545;SDS011;3814;51.454;12.616;2023-04-06T12:19:00;9.02;;;4.72;;
7545;SDS011;3814;51.454;12.616;2023-04-06T12:21:29;11.00;;;5.53;;
7545;SDS011;3814;51.454;12.616;2023-04-06T12:23:56;8.55;;;5.13;;
7545;SDS011;3814;51.454;12.616;2023-04-06T12:26:21;8.82;;;5.05;;
7545;SDS011;3814;51.454;12.616;2023-04-06T12:28:47;8.85;;;4.65;;
7545;SDS011;3814;51.454;12.616;2023-04-06T12:31:19;8.00;;;5.82;;
7545;SDS011;3814;51.454;12.616;2023-04-06T12:33:46;7.88;;;4.18;;
7545;SDS011;3814;51.454;12.616;2023-04-06T12:36:13;7.28;;;4.55;;
7545;SDS011;3814;51.454;12.616;2023-04-06T12:38:48;7.10;;;5.00;;
7545;SDS011;3814;51.454;12.616;2023-04-06T12:41:14;7.82;;;5.10;;
7545;SDS011;3814;51.454;12.616;2023-04-06T13:07:22;8.68;;;5.32;;
7545;SDS011;3814;51.454;12.616;2023-04-06T13:09:47;8.07;;;5.45;;
7545;SDS011;3814;51.454;12.616;2023-04-06T13:12:14;10.60;;;5.70;;
7545;SDS011;3814;51.454;12.616;2023-04-06T13:14:40;8.25;;;5.13;;
7545;SDS011;3814;51.454;12.616;2023-04-06T13:17:05;8.75;;;5.50;;
7545;SDS011;3814;51.454;12.616;2023-04-06T13:19:31;9.38;;;5.28;;
7545;SDS011;3814;51.454;12.616;2023-04-06T13:21:56;7.78;;;5.05;;
7545;SDS011;3814;51.454;12.616;2023-04-06T13:24:22;8.73;;;5.72;;
7545;SDS011;3814;51.454;12.616;2023-04-06T13:26:48;9.23;;;5.25;;
7545;SDS011;3814;51.454;12.616;2023-04-06T13:29:13;8.60;;;6.07;;
7545;SDS011;3814;51.454;12.616;2023-04-06T13:31:38;8.55;;;5.78;;
7545;SDS011;3814;51.454;12.616;2023-04-06T13:34:04;8.10;;;5.20;;
7545;SDS011;3814;51.454;12.616;2023-04-06T13:36:29;9.10;;;5.40;;
7545;SDS011;3814;51.454;12.616;2023-04-06T13:38:55;9.23;;;5.22;;
7545;SDS011;3814;51.454;12.616;2023-04-06T13:41:21;10.10;;;5.07;;
7545;SDS011;3814;51.454;12.616;2023-04-06T13:43:47;8.73;;;4.88;;
7545;SDS011;3814;51.454;12.616;2023-04-06T13:46:13;8.00;;;5.15;;
7545;SDS011;3814;51.454;12.616;2023-04-06T13:48:38;9.10;;;5.80;;
7545;SDS011;3814;51.454;12.616;2023-04-06T13:51:13;9.40;;;5.50;;
7545;SDS011;3814;51.454;12.616;2023-04-06T13:53:40;8.20;;;5.25;;
7545;SDS011;3814;51.454;12.616;2023-04-06T13:56:06;9.32;;;5.55;;
7545;SDS011;3814;51.454;12.616;2023-04-06T13:58:32;8.60;;;5.93;;
7545;SDS011;3814;51.454;12.616;2023-04-06T14:01:04;8.45;;;5.18;;
7545;SDS011;3814;51.454;12.616;2023-04-06T14:03:31;8.68;;;5.57;;
7545;SDS011;3814;51.454;12.616;2023-04-06T14:05:56;9.02;;;5.47;;
7545;SDS011;3814;51.454;12.616;2023-04-06T14:08:21;8.07;;;5.47;;
7545;SDS011;3814;51.454;12.616;2023-04-06T14:10:47;9.75;;;5.97;;
7545;SDS011;3814;51.454;12.616;2023-04-06T14:13:12;12.60;;;5.53;;
7545;SDS011;3814;51.454;12.616;2023-04-06T14:15:37;7.93;;;4.93;;
7545;SDS011;3814;51.454;12.616;2023-04-06T14:18:04;8.85;;;5.43;;
7545;SDS011;3814;51.454;12.616;2023-04-06T14:20:31;8.32;;;4.78;;
7545;SDS011;3814;51.454;12.616;2023-04-06T14:22:56;8.05;;;4.70;;
7545;SDS011;3814;51.454;12.616;2023-04-06T14:25:21;8.32;;;5.03;;
7545;SDS011;3814;51.454;12.616;2023-04-06T14:27:47;9.85;;;5.43;;
7545;SDS011;3814;51.454;12.616;2023-04-06T14:30:12;7.75;;;5.18;;
7545;SDS011;3814;51.454;12.616;2023-04-06T14:32:38;9.25;;;5.65;;
7545;SDS011;3814;51.454;12.616;2023-04-06T14:35:04;8.85;;;5.63;;
7545;SDS011;3814;51.454;12.616;2023-04-06T14:37:30;10.50;;;6.47;;
7545;SDS011;3814;51.454;12.616;2023-04-06T14:39:55;10.00;;;5.57;;
7545;SDS011;3814;51.454;12.616;2023-04-06T14:42:20;10.30;;;5.43;;
7545;SDS011;3814;51.454;12.616;2023-04-06T14:44:45;11.50;;;5.65;;
7545;SDS011;3814;51.454;12.616;2023-04-06T14:47:11;9.00;;;5.43;;
7545;SDS011;3814;51.454;12.616;2023-04-06T14:49:36;8.73;;;5.20;;
7545;SDS011;3814;51.454;12.616;2023-04-06T14:52:02;10.00;;;5.90;;
7545;SDS011;3814;51.454;12.616;2023-04-06T14:54:27;9.10;;;5.80;;
7545;SDS011;3814;51.454;12.616;2023-04-06T14:56:52;9.82;;;6.45;;
7545;SDS011;3814;51.454;12.616;2023-04-06T14:59:18;10.02;;;4.78;;
7545;SDS011;3814;51.454;12.616;2023-04-06T15:01:43;9.93;;;5.60;;
7545;SDS011;3814;51.454;12.616;2023-04-06T15:04:08;9.32;;;5.97;;
7545;SDS011;3814;51.454;12.616;2023-04-06T15:06:34;9.82;;;6.50;;
7545;SDS011;3814;51.454;12.616;2023-04-06T15:08:59;9.98;;;5.88;;
7545;SDS011;3814;51.454;12.616;2023-04-06T15:11:25;9.30;;;5.85;;
7545;SDS011;3814;51.454;12.616;2023-04-06T15:13:50;11.23;;;5.97;;
7545;SDS011;3814;51.454;12.616;2023-04-06T15:16:16;9.05;;;5.70;;
7545;SDS011;3814;51.454;12.616;2023-04-06T15:18:41;9.55;;;5.55;;
7545;SDS011;3814;51.454;12.616;2023-04-06T15:21:06;10.43;;;5.93;;
7545;SDS011;3814;51.454;12.616;2023-04-06T15:23:32;15.77;;;8.05;;
7545;SDS011;3814;51.454;12.616;2023-04-06T15:25:59;11.73;;;5.85;;
7545;SDS011;3814;51.454;12.616;2023-04-06T15:28:25;10.57;;;6.20;;
7545;SDS011;3814;51.454;12.616;2023-04-06T15:30:51;11.23;;;5.55;;
7545;SDS011;3814;51.454;12.616;2023-04-06T15:33:16;11.02;;;6.05;;
7545;SDS011;3814;51.454;12.616;2023-04-06T15:35:42;9.52;;;5.93;;